createdAt,value
2017-12-24T00:00:47.000Z,23.24
2017-12-24T00:10:46.000Z,23.28
2017-12-24T00:20:46.000Z,23.15
2017-12-24T00:30:46.000Z,23.11
2017-12-24T00:40:46.000Z,23.07
2017-12-24T00:50:46.000Z,23.05
2017-12-24T01:00:46.000Z,23.04
2017-12-24T01:10:46.000Z,22.9
2017-12-24T01:20:46.000Z,22.91
2017-12-24T01:30:46.000Z,22.88
2017-12-24T01:40:46.000Z,22.84
2017-12-24T01:50:46.000Z,22.85
2017-12-24T02:00:46.000Z,22.8
2017-12-24T02:10:47.000Z,22.77
2017-12-24T02:20:47.000Z,22.76
2017-12-24T02:30:47.000Z,22.72
2017-12-24T02:40:47.000Z,22.61
2017-12-24T02:50:47.000Z,22.72
2017-12-24T03:00:47.000Z,22.62
2017-12-24T03:10:47.000Z,22.58
2017-12-24T03:20:47.000Z,22.56
2017-12-24T03:30:47.000Z,22.57
2017-12-24T03:40:47.000Z,22.55
2017-12-24T03:50:47.000Z,22.51
2017-12-24T04:00:47.000Z,22.46
2017-12-24T04:10:47.000Z,22.46
2017-12-24T04:20:47.000Z,22.44
2017-12-24T04:30:47.000Z,22.42
2017-12-24T04:40:47.000Z,22.4
2017-12-24T04:50:47.000Z,22.4
2017-12-24T05:00:47.000Z,22.4
2017-12-24T05:10:48.000Z,22.39
2017-12-24T05:20:47.000Z,22.42
2017-12-24T05:30:47.000Z,22.46
2017-12-24T05:40:47.000Z,22.44
2017-12-24T05:50:47.000Z,22.48
2017-12-24T06:00:47.000Z,22.48
2017-12-24T06:10:47.000Z,22.5
2017-12-24T06:20:47.000Z,22.55
2017-12-24T06:30:47.000Z,22.55
2017-12-24T06:40:47.000Z,22.67
2017-12-24T06:50:47.000Z,22.67
2017-12-24T07:00:47.000Z,22.69
2017-12-24T07:10:47.000Z,22.68
2017-12-24T07:20:47.000Z,22.71
2017-12-24T07:30:47.000Z,22.76
2017-12-24T07:40:47.000Z,22.81
2017-12-24T07:50:47.000Z,22.79
2017-12-24T08:00:47.000Z,22.84
2017-12-24T08:10:47.000Z,22.87
2017-12-24T08:20:47.000Z,22.91
2017-12-24T08:30:47.000Z,22.92
2017-12-24T08:40:47.000Z,22.93
2017-12-24T08:50:47.000Z,22.98
2017-12-24T09:00:47.000Z,22.99
2017-12-24T09:10:47.000Z,23.06
2017-12-24T09:20:47.000Z,23.07
2017-12-24T09:30:47.000Z,23.06
2017-12-24T09:40:47.000Z,23.04
2017-12-24T09:50:47.000Z,23.29
2017-12-24T10:00:47.000Z,23.28
2017-12-24T10:10:47.000Z,23.23
2017-12-24T10:20:47.000Z,23.22
2017-12-24T10:30:47.000Z,23.17
2017-12-24T10:40:48.000Z,23.2
2017-12-24T10:50:48.000Z,23.2
2017-12-24T11:00:48.000Z,23.22
2017-12-24T11:10:48.000Z,23.19
2017-12-24T11:20:48.000Z,23.2
2017-12-24T11:30:48.000Z,23.19
2017-12-24T11:40:48.000Z,23.22
2017-12-24T11:50:48.000Z,23.21
2017-12-24T12:00:48.000Z,23.21
2017-12-24T12:10:48.000Z,23.24
2017-12-24T12:20:48.000Z,23.22
2017-12-24T12:30:48.000Z,23.2
2017-12-24T12:40:48.000Z,23.23
2017-12-24T12:50:48.000Z,23.23
2017-12-24T13:00:48.000Z,23.24
2017-12-24T13:10:48.000Z,23.22
2017-12-24T13:20:48.000Z,23.26
2017-12-24T13:30:48.000Z,23.17
2017-12-24T13:40:48.000Z,23.13
2017-12-24T13:50:48.000Z,23.12
2017-12-24T14:00:48.000Z,23.2
2017-12-24T14:10:48.000Z,23.15
2017-12-24T14:20:48.000Z,23.2
2017-12-24T14:30:48.000Z,23.19
2017-12-24T14:40:51.000Z,23.24
2017-12-24T14:50:48.000Z,23.22
2017-12-24T15:00:48.000Z,23.28
2017-12-24T15:10:48.000Z,23.32
2017-12-24T15:20:48.000Z,23.32
2017-12-24T15:30:48.000Z,23.28
2017-12-24T15:40:48.000Z,23.36
2017-12-24T15:50:48.000Z,23.38
2017-12-24T16:00:48.000Z,23.33
2017-12-24T16:10:48.000Z,23.33
2017-12-24T16:20:48.000Z,23.34
2017-12-24T16:30:48.000Z,23.3
2017-12-24T16:40:48.000Z,23.22
2017-12-24T16:50:48.000Z,23.3
2017-12-24T17:00:49.000Z,23.29
2017-12-24T17:10:48.000Z,23.3
2017-12-24T17:20:48.000Z,23.23
2017-12-24T17:30:48.000Z,23.3
2017-12-24T17:40:48.000Z,23.27
2017-12-24T17:50:48.000Z,23.27
2017-12-24T18:00:48.000Z,23.28
2017-12-24T18:10:48.000Z,23.3
2017-12-24T18:20:48.000Z,23.28
2017-12-24T18:40:48.000Z,23.41
2017-12-24T18:50:48.000Z,23.35
2017-12-24T19:00:49.000Z,23.4
2017-12-24T19:10:49.000Z,23.37
2017-12-24T19:20:49.000Z,23.5
2017-12-24T19:30:50.000Z,23.52
2017-12-24T19:40:49.000Z,23.59
2017-12-24T19:50:49.000Z,23.62
2017-12-24T20:00:49.000Z,23.65
2017-12-24T20:10:49.000Z,23.61
2017-12-24T20:20:49.000Z,23.68
2017-12-24T20:30:49.000Z,23.71
2017-12-24T20:40:49.000Z,23.74
2017-12-24T20:50:49.000Z,23.79
2017-12-24T21:00:49.000Z,23.84
2017-12-24T21:10:49.000Z,23.87
2017-12-24T21:20:49.000Z,23.9
2017-12-24T21:30:49.000Z,23.89
2017-12-24T21:40:49.000Z,23.9
2017-12-24T21:50:49.000Z,23.93
2017-12-24T22:00:49.000Z,23.98
2017-12-24T22:10:49.000Z,24.03
2017-12-24T22:20:49.000Z,24.03
2017-12-24T22:30:51.000Z,24.04
2017-12-24T22:50:49.000Z,24.02
2017-12-24T23:00:49.000Z,24.02
2017-12-24T23:10:49.000Z,24.02
2017-12-24T23:20:49.000Z,24
2017-12-24T23:30:49.000Z,23.98
2017-12-24T23:40:49.000Z,23.99
2017-12-24T23:50:49.000Z,23.94
